TimePST,TemperatureF,Dew PointF,Humidity,Sea Level PressureIn,VisibilityMPH,Wind Direction,Wind SpeedMPH,Gust SpeedMPH,PrecipitationIn,Events,Conditions,WindDirDegrees,DateUTC
12:56 AM,39.0,35.1,86,29.74,10.0,Calm,Calm,-,N/A,,Mostly Cloudy,0,2013-03-06 08:56:00
1:56 AM,37.9,35.1,89,29.73,10.0,Calm,Calm,-,N/A,,Mostly Cloudy,0,2013-03-06 09:56:00
2:56 AM,37.9,35.1,89,29.70,10.0,Calm,Calm,-,N/A,,Overcast,0,2013-03-06 10:56:00
3:56 AM,41.0,36.0,82,29.67,10.0,Calm,Calm,-,N/A,,Overcast,0,2013-03-06 11:56:00
4:56 AM,42.1,36.0,79,29.66,10.0,Calm,Calm,-,0.00,Rain,Light Rain,0,2013-03-06 12:56:00
5:56 AM,41.0,37.0,86,29.65,10.0,NNE,3.5,-,0.00,,Overcast,20,2013-03-06 13:56:00
6:56 AM,42.1,37.0,82,29.63,10.0,North,11.5,-,N/A,,Overcast,360,2013-03-06 14:56:00
7:56 AM,43.0,37.0,80,29.63,10.0,North,6.9,-,N/A,,Overcast,10,2013-03-06 15:56:00
8:11 AM,42.8,37.4,81,29.62,9.0,North,3.5,-,0.00,Rain,Light Rain,360,2013-03-06 16:11:00
8:56 AM,43.0,37.9,82,29.65,9.0,North,6.9,-,0.00,Rain,Light Rain,10,2013-03-06 16:56:00
9:56 AM,43.0,39.0,86,29.65,7.0,North,8.1,-,0.04,Rain,Light Rain,350,2013-03-06 17:56:00
10:54 AM,43.0,39.0,86,29.66,9.0,North,6.9,-,0.03,Rain,Light Rain,360,2013-03-06 18:54:00
11:56 AM,43.0,39.9,89,29.67,5.0,North,4.6,-,0.03,Rain,Light Rain,350,2013-03-06 19:56:00
12:09 PM,42.8,39.2,87,29.66,6.0,North,5.8,-,0.01,Rain,Light Rain,10,2013-03-06 20:09:00
12:56 PM,43.0,39.0,86,29.68,6.0,North,5.8,-,0.04,Rain,Light Rain,360,2013-03-06 20:56:00
1:47 PM,42.8,39.2,87,29.68,6.0,NNW,9.2,-,0.03,Rain,Light Rain,330,2013-03-06 21:47:00
1:56 PM,42.1,39.0,89,29.69,5.0,NNW,6.9,-,0.04,Rain,Light Rain,340,2013-03-06 21:56:00
2:56 PM,43.0,39.0,86,29.71,6.0,NW,6.9,-,0.03,Rain,Light Rain,320,2013-03-06 22:56:00
3:56 PM,42.1,37.9,85,29.73,8.0,NW,10.4,-,0.02,Rain,Light Rain,310,2013-03-06 23:56:00
4:23 PM,42.8,37.4,81,29.73,8.0,WNW,9.2,-,0.01,Rain,Light Rain,290,2013-03-07 00:23:00
4:56 PM,41.0,37.0,86,29.75,8.0,WNW,8.1,-,0.02,Rain,Light Rain,290,2013-03-07 00:56:00
5:56 PM,41.0,37.0,86,29.77,8.0,WSW,5.8,-,0.01,Rain,Light Rain,250,2013-03-07 01:56:00
6:56 PM,41.0,37.0,86,29.80,10.0,SSW,3.5,-,0.02,Rain,Light Rain,200,2013-03-07 02:56:00
7:56 PM,39.9,37.0,89,29.82,10.0,Calm,Calm,-,0.01,Rain,Light Rain,0,2013-03-07 03:56:00
8:56 PM,39.9,37.0,89,29.84,10.0,SE,3.5,-,0.03,Rain,Light Rain,140,2013-03-07 04:56:00
9:56 PM,39.0,37.0,93,29.87,8.0,SE,3.5,-,0.01,Rain,Light Rain,140,2013-03-07 05:56:00
10:56 PM,39.9,37.0,89,29.89,9.0,ESE,3.5,-,0.00,Rain,Light Rain,110,2013-03-07 06:56:00
11:56 PM,39.9,37.0,89,29.91,7.0,East,4.6,-,0.02,Rain,Light Rain,100,2013-03-07 07:56:00